createdAt,value
2023-11-24T00:00:24.021Z,3.60
2023-11-24T00:02:53.063Z,4.10
2023-11-24T00:05:22.784Z,3.42
2023-11-24T00:08:08.107Z,3.63
2023-11-24T00:10:38.402Z,3.80
2023-11-24T00:13:07.690Z,3.60
2023-11-24T00:15:38.197Z,3.70
2023-11-24T00:18:07.541Z,3.97
2023-11-24T00:20:36.650Z,3.88
2023-11-24T00:23:05.401Z,3.75
2023-11-24T00:25:34.313Z,3.60
2023-11-24T00:28:05.644Z,3.55
2023-11-24T00:30:34.727Z,3.28
2023-11-24T00:33:03.846Z,3.33
2023-11-24T00:35:32.513Z,3.40
2023-11-24T00:38:01.517Z,2.97
2023-11-24T00:40:30.271Z,3.72
2023-11-24T00:43:00.929Z,3.47
2023-11-24T00:45:31.391Z,2.85
2023-11-24T00:48:01.230Z,3.00
2023-11-24T00:50:29.939Z,2.78
2023-11-24T00:52:59.740Z,2.70
2023-11-24T00:55:28.864Z,2.40
2023-11-24T00:57:57.503Z,2.42
2023-11-24T01:00:26.239Z,2.67
2023-11-24T01:02:56.679Z,2.50
2023-11-24T01:05:25.324Z,2.47
2023-11-24T01:07:53.956Z,2.00
2023-11-24T01:10:32.158Z,2.17
2023-11-24T01:13:00.806Z,2.10
2023-11-24T01:15:29.645Z,2.00
2023-11-24T01:18:00.418Z,2.13
2023-11-24T01:20:29.312Z,1.70
2023-11-24T01:22:57.888Z,1.80
2023-11-24T01:25:26.962Z,1.45
2023-11-24T01:27:55.638Z,1.60
2023-11-24T01:30:24.379Z,1.40
2023-11-24T01:32:53.367Z,1.27
2023-11-24T01:35:23.523Z,1.60
2023-11-24T01:37:52.715Z,1.77
2023-11-24T01:40:21.434Z,1.50
2023-11-24T01:42:50.412Z,1.38
2023-11-24T01:45:19.259Z,1.40
2023-11-24T01:47:48.461Z,1.70
2023-11-24T01:50:17.625Z,1.60
2023-11-24T01:52:49.063Z,1.50
2023-11-24T01:55:18.075Z,1.70
2023-11-24T01:57:47.305Z,1.90
2023-11-24T02:00:16.891Z,1.77
2023-11-24T02:02:45.972Z,1.77
2023-11-24T02:05:16.107Z,1.15
2023-11-24T02:07:45.100Z,1.15
2023-11-24T02:10:30.169Z,1.02
2023-11-24T02:12:59.017Z,0.90
2023-11-24T02:15:27.881Z,1.13
2023-11-24T02:17:57.037Z,1.10
2023-11-24T02:20:28.603Z,0.90
2023-11-24T02:22:58.762Z,1.13
2023-11-24T02:25:27.653Z,1.42
2023-11-24T02:27:56.941Z,1.83
2023-11-24T02:30:26.052Z,1.63
2023-11-24T02:32:54.878Z,1.48
